Time;durP1;ratioP1;P1;durP2;ratioP2;P2;SDS_P1;SDS_P2;PMS_P1;PMS_P2;Temp;Humidity;BMP_temperature;BMP_pressure;BME280_temperature;BME280_humidity;BME280_pressure;Samples;Min_cycle;Max_cycle;Signal;HPM_P1;HPM_P2
2023/05/27 00:00:21;;;;;;;24.08;11.38;;;;;;;;;;4912339;29;20056;-71
2023/05/27 00:03:07;;;;;;;20.85;11.75;;;;;;;;;;4906001;29;20053;-69
2023/05/27 00:05:33;;;;;;;19.65;12.50;;;;;;;;;;4911036;29;20055;-69
2023/05/27 00:07:59;;;;;;;20.45;12.93;;;;;;;;;;4911427;29;20067;-67
2023/05/27 00:10:25;;;;;;;26.45;13.88;;;;;;;;;;4908996;29;20064;-68
2023/05/27 00:12:51;;;;;;;23.17;13.00;;;;;;;;;;4910074;29;20135;-70
2023/05/27 00:15:18;;;;;;;23.33;14.32;;;;;;;;;;4911546;29;20063;-69
2023/05/27 00:17:43;;;;;;;26.05;13.65;;;;;;;;;;4912380;29;20051;-70
2023/05/27 00:20:12;;;;;;;22.42;12.98;;;;;;;;;;4904218;29;20056;-68
2023/05/27 00:22:38;;;;;;;20.85;13.85;;;;;;;;;;4915309;29;20067;-68
2023/05/27 00:25:05;;;;;;;27.88;13.07;;;;;;;;;;4917090;29;20104;-69
2023/05/27 00:27:31;;;;;;;18.60;12.88;;;;;;;;;;4912079;29;20052;-71
2023/05/27 00:29:57;;;;;;;21.75;12.63;;;;;;;;;;4908253;29;20580;-68
2023/05/27 00:32:22;;;;;;;24.58;12.95;;;;;;;;;;4911202;29;20044;-72
2023/05/27 00:34:48;;;;;;;28.48;13.60;;;;;;;;;;4908205;29;20052;-69
2023/05/27 00:37:14;;;;;;;22.55;12.93;;;;;;;;;;4913029;29;20056;-69
2023/05/27 00:39:40;;;;;;;22.23;12.88;;;;;;;;;;4911138;29;20115;-68
2023/05/27 00:42:07;;;;;;;23.45;13.20;;;;;;;;;;4912932;29;20420;-69
2023/05/27 00:44:35;;;;;;;21.52;13.27;;;;;;;;;;4908905;29;20063;-68
2023/05/27 00:47:01;;;;;;;22.10;13.88;;;;;;;;;;4908327;29;20062;-69
2023/05/27 00:49:27;;;;;;;33.33;14.13;;;;;;;;;;4915178;29;20067;-70
2023/05/27 00:51:53;;;;;;;24.05;13.65;;;;;;;;;;4912657;29;20476;-69
2023/05/27 00:54:20;;;;;;;25.48;13.70;;;;;;;;;;4911317;29;20052;-69
2023/05/27 00:56:46;;;;;;;20.95;12.85;;;;;;;;;;4912755;29;20056;-69
2023/05/27 00:59:12;;;;;;;24.50;13.05;;;;;;;;;;4915980;29;20080;-70
2023/05/27 01:01:38;;;;;;;25.15;13.20;;;;;;;;;;4908335;29;20048;-69
2023/05/27 01:04:05;;;;;;;22.35;12.93;;;;;;;;;;4905198;29;20120;-69
2023/05/27 01:06:47;;;;;;;18.75;12.40;;;;;;;;;;4907597;29;20067;-70
2023/05/27 01:09:34;;;;;;;23.45;13.30;;;;;;;;;;4910427;29;20469;-69
2023/05/27 01:12:38;;;;;;;24.33;13.23;;;;;;;;;;4908575;29;20418;-68
2023/05/27 01:15:07;;;;;;;27.52;14.90;;;;;;;;;;4912420;29;20052;-68
2023/05/27 01:17:42;;;;;;;24.20;15.70;;;;;;;;;;4905437;29;20080;-71
2023/05/27 01:20:13;;;;;;;31.83;17.58;;;;;;;;;;4911331;29;20429;-69
2023/05/27 01:22:45;;;;;;;30.33;18.80;;;;;;;;;;4909299;29;20130;-71
2023/05/27 01:25:11;;;;;;;31.17;19.25;;;;;;;;;;4906627;29;20504;-70
2023/05/27 01:27:40;;;;;;;30.75;19.20;;;;;;;;;;4909818;29;20052;-70
2023/05/27 01:30:07;;;;;;;33.72;19.35;;;;;;;;;;4905265;29;20276;-69
2023/05/27 01:32:54;;;;;;;37.28;19.48;;;;;;;;;;4907972;29;20052;-70
2023/05/27 01:35:35;;;;;;;31.17;19.23;;;;;;;;;;4912405;29;20055;-72
2023/05/27 01:38:06;;;;;;;34.05;18.75;;;;;;;;;;4912064;29;20095;-71
2023/05/27 01:40:34;;;;;;;32.75;17.95;;;;;;;;;;4912979;29;20059;-70
2023/05/27 01:43:00;;;;;;;32.55;19.55;;;;;;;;;;4910682;29;20054;-71
2023/05/27 01:45:26;;;;;;;31.20;18.48;;;;;;;;;;4912236;29;20060;-71
2023/05/27 01:47:52;;;;;;;34.03;18.35;;;;;;;;;;4908157;29;20100;-70
2023/05/27 01:50:19;;;;;;;31.23;20.13;;;;;;;;;;4912011;29;20205;-73
2023/05/27 01:52:45;;;;;;;30.73;18.67;;;;;;;;;;4910685;29;20123;-70
2023/05/27 01:55:11;;;;;;;35.65;20.20;;;;;;;;;;4908284;29;20051;-73
2023/05/27 01:57:37;;;;;;;35.15;21.17;;;;;;;;;;4911175;29;20112;-70
2023/05/27 02:00:09;;;;;;;36.53;20.75;;;;;;;;;;4912238;29;20068;-73
2023/05/27 02:02:35;;;;;;;33.80;20.42;;;;;;;;;;4899746;29;20122;-69
2023/05/27 02:05:01;;;;;;;36.35;20.58;;;;;;;;;;4911883;29;20560;-71
2023/05/27 02:07:27;;;;;;;36.75;20.55;;;;;;;;;;4914458;29;20052;-72
2023/05/27 02:09:54;;;;;;;38.70;20.92;;;;;;;;;;4914042;29;20125;-69
2023/05/27 02:12:19;;;;;;;31.13;20.42;;;;;;;;;;4911596;29;20568;-70
2023/05/27 02:14:46;;;;;;;30.55;19.75;;;;;;;;;;4909848;29;20524;-71
2023/05/27 02:17:14;;;;;;;32.40;20.33;;;;;;;;;;4908131;29;20196;-69
2023/05/27 02:19:41;;;;;;;43.20;20.20;;;;;;;;;;4906498;29;20509;-70
2023/05/27 02:22:07;;;;;;;35.10;21.13;;;;;;;;;;4906019;29;20087;-71
2023/05/27 02:24:33;;;;;;;36.60;20.92;;;;;;;;;;4912576;29;20052;-68
2023/05/27 02:26:59;;;;;;;36.65;20.42;;;;;;;;;;4917132;29;20067;-71
2023/05/27 02:29:26;;;;;;;34.50;20.35;;;;;;;;;;4909609;29;20063;-70
2023/05/27 02:31:51;;;;;;;29.13;19.45;;;;;;;;;;4912382;29;20435;-71
2023/05/27 02:34:18;;;;;;;34.25;20.40;;;;;;;;;;4909457;29;20078;-71
2023/05/27 02:36:43;;;;;;;33.90;19.25;;;;;;;;;;4911478;29;20059;-70
2023/05/27 02:39:10;;;;;;;31.20;19.02;;;;;;;;;;4912386;29;20059;-72
2023/05/27 02:41:36;;;;;;;37.95;20.75;;;;;;;;;;4914547;29;20056;-69
2023/05/27 02:44:02;;;;;;;32.72;20.02;;;;;;;;;;4911725;29;20115;-70
2023/05/27 02:46:28;;;;;;;35.97;20.55;;;;;;;;;;4914762;29;20048;-71
2023/05/27 02:48:54;;;;;;;34.80;20.52;;;;;;;;;;4910276;29;20559;-70
2023/05/27 02:51:22;;;;;;;37.47;21.23;;;;;;;;;;4910916;29;20762;-70
2023/05/27 02:53:50;;;;;;;36.08;20.55;;;;;;;;;;4911282;29;20067;-69
2023/05/27 02:56:17;;;;;;;37.45;20.98;;;;;;;;;;4912313;29;20118;-70
2023/05/27 02:58:44;;;;;;;37.33;21.25;;;;;;;;;;4909741;29;20056;-70
2023/05/27 03:01:10;;;;;;;35.60;21.15;;;;;;;;;;4912514;29;20402;-70
2023/05/27 03:03:37;;;;;;;39.13;21.83;;;;;;;;;;4908469;29;20066;-72
2023/05/27 03:06:03;;;;;;;32.88;21.27;;;;;;;;;;4903323;29;20048;-69
2023/05/27 03:08:31;;;;;;;43.17;22.27;;;;;;;;;;4910565;29;20036;-70
2023/05/27 03:10:57;;;;;;;40.75;22.58;;;;;;;;;;4912632;29;20496;-72
2023/05/27 03:13:24;;;;;;;41.08;23.23;;;;;;;;;;4910741;29;20052;-70
2023/05/27 03:15:50;;;;;;;38.97;21.00;;;;;;;;;;4910908;29;20115;-70
2023/05/27 03:18:17;;;;;;;40.55;22.35;;;;;;;;;;4912136;29;20047;-71
2023/05/27 03:20:42;;;;;;;40.47;22.45;;;;;;;;;;4911276;29;20079;-69
2023/05/27 03:23:08;;;;;;;43.10;23.00;;;;;;;;;;4909834;29;20052;-70
2023/05/27 03:25:34;;;;;;;41.00;23.00;;;;;;;;;;4911710;29;20063;-70
2023/05/27 03:28:00;;;;;;;39.72;21.73;;;;;;;;;;4910776;29;20044;-69
2023/05/27 03:30:26;;;;;;;41.55;23.42;;;;;;;;;;4912191;29;20115;-68
2023/05/27 03:32:52;;;;;;;42.58;23.35;;;;;;;;;;4910434;29;20389;-69
2023/05/27 03:35:18;;;;;;;42.75;24.08;;;;;;;;;;4911259;29;20108;-70
2023/05/27 03:37:44;;;;;;;44.33;24.90;;;;;;;;;;4907975;29;20044;-70
2023/05/27 03:40:11;;;;;;;40.67;23.50;;;;;;;;;;4909685;29;20408;-70
2023/05/27 03:42:37;;;;;;;39.35;24.13;;;;;;;;;;4905561;29;20063;-71
2023/05/27 03:45:03;;;;;;;41.88;24.95;;;;;;;;;;4924940;29;20052;-71
2023/05/27 03:47:30;;;;;;;47.03;24.35;;;;;;;;;;4909238;29;20056;-70
2023/05/27 03:49:56;;;;;;;43.75;24.80;;;;;;;;;;4911190;29;20083;-68
2023/05/27 03:52:22;;;;;;;46.05;24.65;;;;;;;;;;4911155;29;20055;-71
2023/05/27 03:54:48;;;;;;;40.58;23.70;;;;;;;;;;4913194;29;20266;-69
2023/05/27 03:57:15;;;;;;;46.75;23.88;;;;;;;;;;4922206;29;20429;-69
2023/05/27 03:59:41;;;;;;;50.15;23.40;;;;;;;;;;4909834;29;20477;-69
2023/05/27 04:02:07;;;;;;;41.13;23.75;;;;;;;;;;4906709;29;20062;-70
2023/05/27 04:04:33;;;;;;;43.72;23.17;;;;;;;;;;4907758;29;20056;-69
2023/05/27 04:07:00;;;;;;;48.25;23.45;;;;;;;;;;4910210;29;20052;-69
2023/05/27 04:09:26;;;;;;;44.75;24.67;;;;;;;;;;4916053;29;20056;-69
2023/05/27 04:11:52;;;;;;;48.10;22.38;;;;;;;;;;4910262;29;20111;-69
2023/05/27 04:14:19;;;;;;;41.15;22.30;;;;;;;;;;4907982;29;20564;-68
2023/05/27 04:16:46;;;;;;;46.70;23.35;;;;;;;;;;4908325;29;20068;-70
2023/05/27 04:19:13;;;;;;;43.85;22.85;;;;;;;;;;4907508;29;20055;-67
2023/05/27 04:21:39;;;;;;;46.00;23.30;;;;;;;;;;4909235;29;20082;-69
2023/05/27 04:24:06;;;;;;;47.55;22.33;;;;;;;;;;4911686;29;20210;-69
2023/05/27 04:26:32;;;;;;;50.00;23.45;;;;;;;;;;4913113;29;20060;-71
2023/05/27 04:29:02;;;;;;;49.40;23.30;;;;;;;;;;4908982;29;20386;-69
2023/05/27 04:31:30;;;;;;;49.20;24.05;;;;;;;;;;4909647;29;20060;-70
2023/05/27 04:33:57;;;;;;;45.00;22.55;;;;;;;;;;4909821;29;20060;-68
2023/05/27 04:36:26;;;;;;;48.38;23.92;;;;;;;;;;4910871;29;20052;-69
2023/05/27 04:38:52;;;;;;;45.38;23.25;;;;;;;;;;4907138;29;20719;-70
2023/05/27 04:41:28;;;;;;;47.80;22.95;;;;;;;;;;4908627;29;20056;-69
2023/05/27 04:43:56;;;;;;;51.83;23.83;;;;;;;;;;4930526;29;20056;-70
2023/05/27 04:46:24;;;;;;;44.63;24.23;;;;;;;;;;4911744;29;20350;-69
2023/05/27 04:48:54;;;;;;;46.95;25.25;;;;;;;;;;4911117;29;20564;-71
2023/05/27 04:51:21;;;;;;;53.00;25.30;;;;;;;;;;4911317;29;20498;-71
2023/05/27 04:53:49;;;;;;;53.20;25.33;;;;;;;;;;4913772;29;20055;-70
2023/05/27 04:56:17;;;;;;;57.70;26.33;;;;;;;;;;4913800;29;20045;-71
2023/05/27 04:58:46;;;;;;;59.15;26.98;;;;;;;;;;4910436;29;20076;-72
2023/05/27 05:01:21;;;;;;;58.42;27.58;;;;;;;;;;4913347;29;20052;-67
2023/05/27 05:04:02;;;;;;;;;;;;;;;;;;4912318;29;20052;-68
2023/05/27 05:06:28;;;;;;;52.08;26.10;;;;;;;;;;4912866;29;19923;-66
2023/05/27 05:08:54;;;;;;;54.10;27.13;;;;;;;;;;4910466;29;20071;-66
2023/05/27 05:11:21;;;;;;;55.25;27.50;;;;;;;;;;4913787;29;20052;-68
2023/05/27 05:13:47;;;;;;;61.70;26.40;;;;;;;;;;4912434;29;20420;-67
2023/05/27 05:16:13;;;;;;;57.53;27.83;;;;;;;;;;4912205;29;20493;-67
2023/05/27 05:18:39;;;;;;;55.20;28.50;;;;;;;;;;4911149;29;20298;-68
2023/05/27 05:21:05;;;;;;;46.97;26.40;;;;;;;;;;4914671;29;20056;-70
2023/05/27 05:23:32;;;;;;;58.22;26.65;;;;;;;;;;4904692;29;20056;-71
2023/05/27 05:26:05;;;;;;;52.42;27.60;;;;;;;;;;4913047;29;20091;-67
2023/05/27 05:28:32;;;;;;;54.63;28.42;;;;;;;;;;4912792;29;20052;-67
2023/05/27 05:30:58;;;;;;;53.00;26.70;;;;;;;;;;4912401;29;20056;-67
2023/05/27 05:33:24;;;;;;;54.25;27.67;;;;;;;;;;4910387;29;20447;-67
2023/05/27 05:35:50;;;;;;;48.28;25.75;;;;;;;;;;4914777;29;20505;-68
2023/05/27 05:38:19;;;;;;;55.95;26.83;;;;;;;;;;4912925;29;20548;-66
2023/05/27 05:40:49;;;;;;;50.72;26.98;;;;;;;;;;4913344;29;20056;-71
2023/05/27 05:43:15;;;;;;;53.15;25.90;;;;;;;;;;4907746;29;20067;-66
2023/05/27 05:45:41;;;;;;;49.63;25.13;;;;;;;;;;4905919;29;20401;-69
2023/05/27 05:48:09;;;;;;;49.97;25.50;;;;;;;;;;4909747;29;20056;-68
2023/05/27 05:50:38;;;;;;;47.60;25.55;;;;;;;;;;4915159;29;20489;-69
2023/05/27 05:53:04;;;;;;;44.63;23.92;;;;;;;;;;4908923;29;20577;-66
2023/05/27 05:55:30;;;;;;;50.85;23.80;;;;;;;;;;4916408;29;20404;-68
2023/05/27 05:57:56;;;;;;;43.65;24.23;;;;;;;;;;4918418;29;20063;-68
2023/05/27 06:00:23;;;;;;;43.28;23.92;;;;;;;;;;4905179;29;20090;-67
2023/05/27 06:02:50;;;;;;;39.97;23.42;;;;;;;;;;4909796;29;20078;-68
2023/05/27 06:05:16;;;;;;;44.53;24.05;;;;;;;;;;4914436;29;20052;-68
2023/05/27 06:07:42;;;;;;;40.70;22.38;;;;;;;;;;4915942;29;20087;-68
2023/05/27 06:10:09;;;;;;;41.40;22.85;;;;;;;;;;4910546;29;20095;-68
2023/05/27 06:12:35;;;;;;;41.45;21.88;;;;;;;;;;4910302;29;20051;-66
2023/05/27 06:15:02;;;;;;;41.40;22.52;;;;;;;;;;4927275;29;20056;-71
2023/05/27 06:17:28;;;;;;;38.35;21.88;;;;;;;;;;4908526;29;20052;-68
2023/05/27 06:19:54;;;;;;;42.28;22.60;;;;;;;;;;4910908;29;20484;-69
2023/05/27 06:22:20;;;;;;;44.92;21.92;;;;;;;;;;4904280;29;20171;-66
2023/05/27 06:25:26;;;;;;;41.55;21.48;;;;;;;;;;4904879;29;20501;-69
2023/05/27 06:29:07;;;;;;;38.22;21.45;;;;;;;;;;4903831;29;20048;-68
2023/05/27 06:32:07;;;;;;;35.55;19.42;;;;;;;;;;4898624;29;20504;-69
2023/05/27 06:34:34;;;;;;;36.60;19.73;;;;;;;;;;4903051;29;20499;-68
2023/05/27 06:37:00;;;;;;;36.72;18.80;;;;;;;;;;4903329;29;20060;-68
2023/05/27 06:39:26;;;;;;;32.33;19.77;;;;;;;;;;4898703;29;20063;-68
2023/05/27 06:41:52;;;;;;;39.40;20.48;;;;;;;;;;4903358;29;20052;-69
2023/05/27 06:44:19;;;;;;;36.00;19.65;;;;;;;;;;4897354;29;20338;-67
2023/05/27 06:46:46;;;;;;;36.35;19.63;;;;;;;;;;4898803;29;20052;-67
2023/05/27 06:49:12;;;;;;;30.00;17.25;;;;;;;;;;4898260;29;20048;-69
2023/05/27 06:51:38;;;;;;;34.75;17.98;;;;;;;;;;4905345;29;20412;-67
2023/05/27 06:54:07;;;;;;;37.55;17.33;;;;;;;;;;4905249;29;20474;-69
2023/05/27 06:56:33;;;;;;;28.05;17.55;;;;;;;;;;4898123;29;20163;-67
2023/05/27 06:58:59;;;;;;;35.63;17.75;;;;;;;;;;4900638;29;21399;-66
2023/05/27 07:01:25;;;;;;;31.65;17.63;;;;;;;;;;4894936;29;20147;-69
2023/05/27 07:03:51;;;;;;;26.50;15.90;;;;;;;;;;4893727;29;20127;-67
2023/05/27 07:06:18;;;;;;;30.50;16.20;;;;;;;;;;4901906;29;20056;-69
2023/05/27 07:08:44;;;;;;;25.10;15.40;;;;;;;;;;4896416;29;20056;-68
2023/05/27 07:11:10;;;;;;;35.60;17.02;;;;;;;;;;4903732;29;20051;-72
2023/05/27 07:13:36;;;;;;;27.05;16.70;;;;;;;;;;4900370;29;20907;-69
2023/05/27 07:16:02;;;;;;;28.50;16.05;;;;;;;;;;4901543;29;20052;-68
2023/05/27 07:18:28;;;;;;;31.00;16.27;;;;;;;;;;4900102;29;20587;-68
2023/05/27 07:20:54;;;;;;;27.17;15.43;;;;;;;;;;4902636;29;20056;-69
2023/05/27 07:23:20;;;;;;;25.23;14.38;;;;;;;;;;4898189;29;20436;-68
2023/05/27 07:25:46;;;;;;;28.10;15.43;;;;;;;;;;4900908;29;20055;-67
2023/05/27 07:28:12;;;;;;;26.17;14.55;;;;;;;;;;4901998;29;20056;-68
2023/05/27 07:30:38;;;;;;;27.00;14.00;;;;;;;;;;4906331;29;20135;-67
2023/05/27 07:33:04;;;;;;;27.88;14.15;;;;;;;;;;4904345;29;20060;-68
2023/05/27 07:36:10;;;;;;;30.65;14.38;;;;;;;;;;4898894;29;20066;-67
2023/05/27 07:39:53;;;;;;;26.10;12.98;;;;;;;;;;4898693;29;20063;-69
2023/05/27 07:43:34;;;;;;;19.92;12.02;;;;;;;;;;4898783;29;20071;-69
2023/05/27 07:47:14;;;;;;;29.13;12.68;;;;;;;;;;4898490;29;20056;-67
2023/05/27 07:50:55;;;;;;;20.60;11.20;;;;;;;;;;4896476;29;20474;-68
2023/05/27 07:54:35;;;;;;;21.85;10.40;;;;;;;;;;4897660;29;20065;-69
2023/05/27 07:58:15;;;;;;;15.75;9.32;;;;;;;;;;4904716;29;20230;-69
2023/05/27 08:01:56;;;;;;;21.75;9.52;;;;;;;;;;4906401;29;20048;-69
2023/05/27 08:05:36;;;;;;;20.45;8.48;;;;;;;;;;4905166;29;20063;-73
2023/05/27 08:09:17;;;;;;;19.52;8.80;;;;;;;;;;4898892;29;20476;-68
2023/05/27 08:12:58;;;;;;;23.40;8.80;;;;;;;;;;4901483;29;20577;-70
2023/05/27 08:16:39;;;;;;;22.08;9.02;;;;;;;;;;4905951;29;20062;-71
2023/05/27 08:20:20;;;;;;;20.67;8.10;;;;;;;;;;4902938;29;20532;-69
2023/05/27 08:24:00;;;;;;;18.73;7.22;;;;;;;;;;4905681;29;20055;-69
2023/05/27 08:27:40;;;;;;;25.05;7.68;;;;;;;;;;4908065;29;20075;-69
2023/05/27 08:31:23;;;;;;;20.25;7.38;;;;;;;;;;4906180;29;20464;-70
2023/05/27 08:35:04;;;;;;;18.45;5.43;;;;;;;;;;4903915;29;20486;-71
2023/05/27 08:38:44;;;;;;;19.58;6.57;;;;;;;;;;4906291;29;20079;-70
2023/05/27 08:42:25;;;;;;;19.88;7.80;;;;;;;;;;4908650;29;20044;-67
2023/05/27 08:46:07;;;;;;;13.13;5.13;;;;;;;;;;4909568;29;20078;-70
2023/05/27 08:49:47;;;;;;;18.80;5.65;;;;;;;;;;4907698;29;20036;-67
2023/05/27 08:53:27;;;;;;;20.08;6.13;;;;;;;;;;4909248;29;20151;-69
2023/05/27 08:57:08;;;;;;;13.48;5.20;;;;;;;;;;4904210;29;20055;-69
2023/05/27 09:00:48;;;;;;;14.85;5.15;;;;;;;;;;4910091;29;20044;-69
2023/05/27 09:04:29;;;;;;;12.23;4.80;;;;;;;;;;4909929;29;20132;-69
2023/05/27 09:08:09;;;;;;;18.80;5.38;;;;;;;;;;4913325;29;20054;-69
2023/05/27 09:11:49;;;;;;;17.40;5.60;;;;;;;;;;4912873;29;20079;-68
2023/05/27 09:15:30;;;;;;;17.50;5.72;;;;;;;;;;4906575;29;20064;-68
2023/05/27 09:19:10;;;;;;;15.38;4.88;;;;;;;;;;4909203;29;20547;-68
2023/05/27 09:22:50;;;;;;;13.18;4.50;;;;;;;;;;4909550;29;20055;-63
2023/05/27 09:26:31;;;;;;;12.88;4.90;;;;;;;;;;4913478;29;20055;-66
2023/05/27 09:30:11;;;;;;;13.43;5.55;;;;;;;;;;4906881;29;20048;-67
2023/05/27 09:33:54;;;;;;;15.68;6.20;;;;;;;;;;4904516;29;20059;-69
2023/05/27 09:37:35;;;;;;;19.30;6.72;;;;;;;;;;4910159;29;20102;-64
2023/05/27 09:41:15;;;;;;;11.90;5.40;;;;;;;;;;4911760;29;20522;-67
2023/05/27 09:44:55;;;;;;;16.15;5.85;;;;;;;;;;4911864;29;20044;-68
2023/05/27 09:48:36;;;;;;;19.02;6.85;;;;;;;;;;4905019;29;20560;-67
2023/05/27 09:52:19;;;;;;;17.50;5.53;;;;;;;;;;4910588;29;20490;-66
2023/05/27 09:55:57;;;;;;;18.17;5.82;;;;;;;;;;4911772;29;20705;-66
2023/05/27 09:59:37;;;;;;;15.63;5.88;;;;;;;;;;4909291;29;20044;-68
2023/05/27 10:03:28;;;;;;;16.33;5.93;;;;;;;;;;4902439;29;20051;-70
2023/05/27 10:07:09;;;;;;;14.65;4.53;;;;;;;;;;4910155;29;20078;-68
2023/05/27 10:10:50;;;;;;;8.95;4.13;;;;;;;;;;4906435;29;20052;-65
2023/05/27 10:14:30;;;;;;;12.85;4.60;;;;;;;;;;4912775;29;20048;-67
2023/05/27 10:18:20;;;;;;;12.02;4.85;;;;;;;;;;4907449;29;20150;-70
2023/05/27 10:22:01;;;;;;;15.07;4.65;;;;;;;;;;4908509;29;20052;-68
2023/05/27 10:25:56;;;;;;;11.60;5.10;;;;;;;;;;4901301;29;20060;-68
2023/05/27 10:29:39;;;;;;;18.85;6.70;;;;;;;;;;4908849;29;20078;-66
2023/05/27 10:33:22;;;;;;;14.40;6.10;;;;;;;;;;4905043;29;20048;-68
2023/05/27 10:37:03;;;;;;;18.88;6.30;;;;;;;;;;4905848;29;20044;-67
2023/05/27 10:40:43;;;;;;;27.45;9.43;;;;;;;;;;4911405;29;20334;-69
2023/05/27 10:44:24;;;;;;;26.55;7.18;;;;;;;;;;4912433;29;20135;-68
2023/05/27 10:48:04;;;;;;;17.65;6.38;;;;;;;;;;4906816;29;20052;-67
2023/05/27 10:51:53;;;;;;;18.33;6.68;;;;;;;;;;4908627;29;20520;-68
2023/05/27 10:55:34;;;;;;;16.65;5.50;;;;;;;;;;4910881;29;20062;-68
2023/05/27 10:59:15;;;;;;;21.35;6.25;;;;;;;;;;4908723;29;20080;-68
2023/05/27 11:02:54;;;;;;;18.30;5.88;;;;;;;;;;4910078;29;20527;-66
2023/05/27 11:06:44;;;;;;;17.38;6.65;;;;;;;;;;4912982;29;20107;-67
2023/05/27 11:10:32;;;;;;;20.23;6.07;;;;;;;;;;4908590;29;20054;-67
2023/05/27 11:14:12;;;;;;;11.60;4.93;;;;;;;;;;4902686;29;20513;-68
2023/05/27 11:17:52;;;;;;;21.67;5.60;;;;;;;;;;4904660;29;20051;-70
2023/05/27 11:21:34;;;;;;;18.50;6.45;;;;;;;;;;4909871;29;20056;-68
2023/05/27 11:25:15;;;;;;;20.27;5.75;;;;;;;;;;4910124;29;20413;-68
2023/05/27 11:29:11;;;;;;;18.23;5.53;;;;;;;;;;4907063;29;20063;-67
2023/05/27 11:32:50;;;;;;;16.33;6.43;;;;;;;;;;4909164;29;20678;-67
2023/05/27 11:36:31;;;;;;;18.52;6.10;;;;;;;;;;4907028;29;20048;-67
2023/05/27 11:40:13;;;;;;;19.58;6.50;;;;;;;;;;4909403;29;20056;-68
2023/05/27 11:44:10;;;;;;;14.70;5.40;;;;;;;;;;4909949;29;20043;-68
2023/05/27 11:47:53;;;;;;;18.20;5.40;;;;;;;;;;4908080;29;20084;-67
2023/05/27 11:51:31;;;;;;;15.75;6.03;;;;;;;;;;4913845;29;20473;-70
2023/05/27 11:55:12;;;;;;;14.45;4.97;;;;;;;;;;4913525;29;20087;-66
2023/05/27 11:58:53;;;;;;;16.10;5.78;;;;;;;;;;4907126;29;20043;-68
2023/05/27 12:02:35;;;;;;;17.15;5.60;;;;;;;;;;4914118;29;20118;-69
2023/05/27 12:06:14;;;;;;;22.90;6.22;;;;;;;;;;4916549;29;20052;-67
2023/05/27 12:09:55;;;;;;;24.42;6.78;;;;;;;;;;4909162;29;20419;-66
2023/05/27 12:13:44;;;;;;;18.52;5.60;;;;;;;;;;4907450;29;20540;-69
2023/05/27 12:17:25;;;;;;;19.52;4.95;;;;;;;;;;4913672;29;20147;-68
2023/05/27 12:21:05;;;;;;;15.30;4.93;;;;;;;;;;4908626;29;20132;-68
2023/05/27 12:24:51;;;;;;;20.58;4.88;;;;;;;;;;4911535;29;20060;-66
2023/05/27 12:28:28;;;;;;;16.27;5.03;;;;;;;;;;4906871;29;20055;-67
2023/05/27 12:32:09;;;;;;;16.92;5.07;;;;;;;;;;4913487;29;20043;-67
2023/05/27 12:35:49;;;;;;;18.27;4.82;;;;;;;;;;4911512;29;20048;-67
2023/05/27 12:39:29;;;;;;;11.98;4.20;;;;;;;;;;4910813;29;20076;-67
2023/05/27 12:43:11;;;;;;;13.32;4.68;;;;;;;;;;4911666;29;20055;-69
2023/05/27 12:46:51;;;;;;;12.82;4.82;;;;;;;;;;4910318;29;20056;-67
2023/05/27 12:50:33;;;;;;;12.60;4.30;;;;;;;;;;4912801;29;20060;-71
2023/05/27 12:54:15;;;;;;;14.88;4.13;;;;;;;;;;4908374;29;20421;-67
2023/05/27 12:57:55;;;;;;;10.30;4.00;;;;;;;;;;4906986;29;20072;-67
2023/05/27 13:01:35;;;;;;;14.70;4.20;;;;;;;;;;4910300;29;20048;-67
2023/05/27 13:05:15;;;;;;;11.95;3.80;;;;;;;;;;4914913;29;20052;-67
2023/05/27 13:08:56;;;;;;;11.15;3.83;;;;;;;;;;4907746;29;20050;-70
2023/05/27 13:12:36;;;;;;;10.65;3.70;;;;;;;;;;4910368;29;20071;-67
2023/05/27 13:16:17;;;;;;;16.73;4.45;;;;;;;;;;4907939;29;20051;-67
2023/05/27 13:19:58;;;;;;;17.35;4.30;;;;;;;;;;4911880;29;20548;-66
2023/05/27 13:23:38;;;;;;;11.07;3.70;;;;;;;;;;4913361;29;20151;-68
2023/05/27 13:27:18;;;;;;;7.03;3.85;;;;;;;;;;4914111;29;20460;-69
2023/05/27 13:30:59;;;;;;;12.15;4.28;;;;;;;;;;4907045;29;20087;-67
2023/05/27 13:34:39;;;;;;;12.80;3.88;;;;;;;;;;4913839;29;20041;-68
2023/05/27 13:38:19;;;;;;;13.70;4.03;;;;;;;;;;4913635;29;20073;-68
2023/05/27 13:42:00;;;;;;;11.68;4.38;;;;;;;;;;4914111;29;20055;-70
2023/05/27 13:45:40;;;;;;;10.43;4.50;;;;;;;;;;4914116;29;20059;-68
2023/05/27 13:49:21;;;;;;;16.17;4.13;;;;;;;;;;4909727;29;20044;-67
2023/05/27 13:53:01;;;;;;;15.27;4.28;;;;;;;;;;4911721;29;20485;-68
2023/05/27 13:56:43;;;;;;;13.30;4.18;;;;;;;;;;4911919;29;20505;-69
2023/05/27 14:00:23;;;;;;;11.98;4.38;;;;;;;;;;4909260;29;20075;-69
2023/05/27 14:04:03;;;;;;;10.77;4.22;;;;;;;;;;4912838;29;20076;-68
2023/05/27 14:07:45;;;;;;;15.93;4.07;;;;;;;;;;4912063;29;20662;-68
2023/05/27 14:11:24;;;;;;;15.55;3.70;;;;;;;;;;4906307;29;20103;-68
2023/05/27 14:15:04;;;;;;;11.13;3.60;;;;;;;;;;4909744;29;20274;-68
2023/05/27 14:18:44;;;;;;;9.27;3.80;;;;;;;;;;4910640;29;20041;-69
2023/05/27 14:22:25;;;;;;;8.65;4.00;;;;;;;;;;4914829;29;20436;-70
2023/05/27 14:26:05;;;;;;;12.20;3.92;;;;;;;;;;4905108;29;20064;-69
2023/05/27 14:29:45;;;;;;;10.02;4.20;;;;;;;;;;4910522;29;20513;-69
2023/05/27 14:33:27;;;;;;;8.15;3.67;;;;;;;;;;4908449;29;20056;-69
2023/05/27 14:37:08;;;;;;;10.40;3.92;;;;;;;;;;4911686;29;20128;-68
2023/05/27 14:40:49;;;;;;;9.57;3.97;;;;;;;;;;4906632;29;20058;-67
2023/05/27 14:44:29;;;;;;;7.82;3.90;;;;;;;;;;4904829;29;20066;-66
2023/05/27 14:48:10;;;;;;;11.68;4.00;;;;;;;;;;4909719;29;20416;-70
2023/05/27 14:51:50;;;;;;;9.85;4.18;;;;;;;;;;4900826;29;20460;-70
2023/05/27 14:55:30;;;;;;;10.30;4.20;;;;;;;;;;4908447;29;20052;-69
2023/05/27 14:59:11;;;;;;;9.48;3.35;;;;;;;;;;4903920;29;20048;-70
2023/05/27 15:02:51;;;;;;;8.00;3.50;;;;;;;;;;4908947;29;20060;-69
2023/05/27 15:06:32;;;;;;;14.00;3.40;;;;;;;;;;4900785;29;20083;-69
2023/05/27 15:10:12;;;;;;;9.00;3.45;;;;;;;;;;4908687;29;20047;-73
2023/05/27 15:13:55;;;;;;;6.55;3.28;;;;;;;;;;4908081;29;20048;-70
2023/05/27 15:17:37;;;;;;;8.52;2.90;;;;;;;;;;4908328;29;20055;-68
2023/05/27 15:21:17;;;;;;;9.00;3.47;;;;;;;;;;4908139;29;20048;-67
2023/05/27 15:24:59;;;;;;;12.77;3.65;;;;;;;;;;4918258;29;20527;-69
2023/05/27 15:28:39;;;;;;;11.38;3.78;;;;;;;;;;4917072;29;20378;-69
2023/05/27 15:32:19;;;;;;;7.80;3.28;;;;;;;;;;4899168;29;20723;-68
2023/05/27 15:36:00;;;;;;;7.18;3.30;;;;;;;;;;4912580;29;20498;-70
2023/05/27 15:39:40;;;;;;;13.77;4.15;;;;;;;;;;4905769;29;20044;-68
2023/05/27 15:43:20;;;;;;;7.18;3.58;;;;;;;;;;4906539;29;20060;-67
2023/05/27 15:47:01;;;;;;;10.77;4.20;;;;;;;;;;4907675;29;20056;-68
2023/05/27 15:50:41;;;;;;;8.38;3.88;;;;;;;;;;4909682;29;20037;-68
2023/05/27 15:54:22;;;;;;;12.80;4.18;;;;;;;;;;4906425;29;20109;-67
2023/05/27 15:58:02;;;;;;;9.20;3.67;;;;;;;;;;4909617;29;20122;-68
2023/05/27 16:01:42;;;;;;;15.80;4.13;;;;;;;;;;4912376;29;20044;-68
2023/05/27 16:05:23;;;;;;;9.00;3.22;;;;;;;;;;4912540;29;20055;-67
2023/05/27 16:09:03;;;;;;;8.75;3.67;;;;;;;;;;4906960;29;20098;-69
2023/05/27 16:12:43;;;;;;;7.15;3.30;;;;;;;;;;4917396;29;20417;-70
2023/05/27 16:16:24;;;;;;;10.30;3.70;;;;;;;;;;4913337;29;20641;-70
2023/05/27 16:20:04;;;;;;;7.57;3.50;;;;;;;;;;4909434;29;20051;-68
2023/05/27 16:23:45;;;;;;;9.18;3.75;;;;;;;;;;4906330;29;20416;-69
2023/05/27 16:27:25;;;;;;;10.32;3.30;;;;;;;;;;4903405;29;20480;-69
2023/05/27 16:31:05;;;;;;;6.22;3.17;;;;;;;;;;4905683;29;20051;-69
2023/05/27 16:34:46;;;;;;;8.38;3.25;;;;;;;;;;4910696;29;20052;-68
2023/05/27 16:38:26;;;;;;;12.57;4.18;;;;;;;;;;4912481;29;20063;-68
2023/05/27 16:42:07;;;;;;;8.23;3.65;;;;;;;;;;4910441;29;20096;-67
2023/05/27 16:45:48;;;;;;;10.05;3.28;;;;;;;;;;4907723;29;20052;-68
2023/05/27 16:49:29;;;;;;;10.10;4.03;;;;;;;;;;4911829;29;20151;-69
2023/05/27 16:53:09;;;;;;;6.63;3.20;;;;;;;;;;4911475;29;20049;-68
2023/05/27 16:56:49;;;;;;;12.95;3.50;;;;;;;;;;4908944;29;20083;-68
2023/05/27 17:00:30;;;;;;;7.35;3.40;;;;;;;;;;4911709;29;20052;-67
2023/05/27 17:04:11;;;;;;;8.32;3.53;;;;;;;;;;4908230;29;20063;-67
2023/05/27 17:07:51;;;;;;;5.47;3.05;;;;;;;;;;4913545;29;20040;-69
2023/05/27 17:11:32;;;;;;;9.32;3.60;;;;;;;;;;4911945;29;20048;-68
2023/05/27 17:15:12;;;;;;;10.70;3.70;;;;;;;;;;4908698;29;20071;-67
2023/05/27 17:18:52;;;;;;;8.23;3.72;;;;;;;;;;4912755;29;20083;-69
2023/05/27 17:22:33;;;;;;;12.18;3.88;;;;;;;;;;4914317;29;20056;-72
2023/05/27 17:26:13;;;;;;;14.18;4.43;;;;;;;;;;4905981;29;20103;-68
2023/05/27 17:29:54;;;;;;;10.60;4.15;;;;;;;;;;4906453;29;20119;-69
2023/05/27 17:33:34;;;;;;;11.05;3.90;;;;;;;;;;4908357;29;20103;-68
2023/05/27 17:37:17;;;;;;;12.75;3.60;;;;;;;;;;4908959;29;20154;-71
2023/05/27 17:40:55;;;;;;;14.68;3.70;;;;;;;;;;4909484;29;20051;-72
2023/05/27 17:44:35;;;;;;;7.95;3.60;;;;;;;;;;4911123;29;20119;-73
2023/05/27 17:48:15;;;;;;;13.80;3.70;;;;;;;;;;4904838;29;20397;-73
2023/05/27 17:51:56;;;;;;;12.23;3.97;;;;;;;;;;4903221;29;20103;-71